Time;durP1;ratioP1;P1;durP2;ratioP2;P2;SDS_P1;SDS_P2;PMS_P1;PMS_P2;Temp;Humidity;BMP_temperature;BMP_pressure;BME280_temperature;BME280_humidity;BME280_pressure;Samples;Min_cycle;Max_cycle;Signal;HPM_P1;HPM_P2
2021/09/16 00:02:03;;;;;;;8.18;5.65;;;;;;;12.00;63.45;99930.88;1722223;81;21476;-61
2021/09/16 00:04:30;;;;;;;9.93;6.15;;;;;;;12.03;63.99;99932.87;1712994;82;21471;-62
2021/09/16 00:06:56;;;;;;;12.13;6.50;;;;;;;12.18;64.28;99930.50;1711078;81;21508;-60
2021/09/16 00:09:24;;;;;;;10.30;6.33;;;;;;;12.20;64.19;99933.45;1699106;82;21455;-61
2021/09/16 00:11:51;;;;;;;10.03;6.33;;;;;;;12.19;64.13;99927.80;1708892;82;21476;-62
2021/09/16 00:14:21;;;;;;;11.30;6.85;;;;;;;12.16;64.14;99934.98;1723134;82;21676;-59
2021/09/16 00:16:48;;;;;;;9.58;6.33;;;;;;;12.08;64.17;99930.91;1716198;81;21631;-60
2021/09/16 00:19:15;;;;;;;9.25;6.90;;;;;;;12.02;64.25;99931.19;1674727;84;20942;-61
2021/09/16 00:21:43;;;;;;;9.98;6.58;;;;;;;11.95;64.17;99932.37;1671701;84;21496;-60
2021/09/16 00:24:10;;;;;;;10.25;7.08;;;;;;;11.87;64.04;99926.09;1720953;82;20978;-60
2021/09/16 00:26:38;;;;;;;9.40;5.95;;;;;;;11.79;64.17;99930.85;1721740;81;21622;-60
2021/09/16 00:29:07;;;;;;;10.45;6.47;;;;;;;11.69;64.33;99931.68;1719531;82;21500;-60
2021/09/16 00:31:33;;;;;;;10.20;6.25;;;;;;;11.69;64.79;99935.62;1721971;82;21526;-60
2021/09/16 00:34:00;;;;;;;8.83;6.40;;;;;;;11.76;64.73;99942.83;1722846;82;21464;-61
2021/09/16 00:36:27;;;;;;;13.53;6.47;;;;;;;11.72;64.66;99938.61;1723459;82;21412;-60
2021/09/16 00:38:55;;;;;;;12.73;6.78;;;;;;;11.65;64.81;99944.59;1722995;82;21837;-61
2021/09/16 00:41:23;;;;;;;10.30;6.95;;;;;;;11.59;64.96;99943.55;1720745;82;21524;-59
2021/09/16 00:43:50;;;;;;;11.60;6.90;;;;;;;11.54;65.07;99938.07;1722946;81;20991;-59
2021/09/16 00:46:16;;;;;;;11.03;7.33;;;;;;;11.52;65.21;99943.86;1711255;82;21425;-59
2021/09/16 00:48:45;;;;;;;10.72;6.62;;;;;;;11.48;65.29;99947.93;1694708;82;21488;-61
2021/09/16 00:51:14;;;;;;;13.08;6.87;;;;;;;11.50;65.90;99942.14;1712869;82;21424;-61
2021/09/16 00:53:40;;;;;;;9.70;6.45;;;;;;;11.62;66.01;99943.42;1723093;82;28533;-59
2021/09/16 00:56:09;;;;;;;12.80;6.58;;;;;;;11.62;65.88;99947.37;1717554;81;21495;-61
2021/09/16 00:58:40;;;;;;;12.43;7.30;;;;;;;11.57;65.75;99944.53;1693854;83;21455;-59
2021/09/16 01:01:07;;;;;;;12.25;7.08;;;;;;;11.52;65.69;99947.34;1704563;81;21404;-61
2021/09/16 01:03:35;;;;;;;11.65;7.00;;;;;;;11.47;65.57;99950.19;1722527;82;21741;-59
2021/09/16 01:06:02;;;;;;;13.48;7.60;;;;;;;11.38;65.63;99954.52;1723214;82;21429;-59
2021/09/16 01:08:29;;;;;;;9.53;7.65;;;;;;;11.30;65.64;99951.31;1700577;82;21476;-61
2021/09/16 01:10:58;;;;;;;11.07;7.47;;;;;;;11.20;65.80;99952.63;1721023;82;21599;-60
2021/09/16 01:13:24;;;;;;;12.63;7.67;;;;;;;11.16;66.41;99951.89;1723077;81;21564;-59
2021/09/16 01:15:53;;;;;;;12.13;7.30;;;;;;;11.24;66.66;99948.95;1695289;82;21492;-60
2021/09/16 01:18:19;;;;;;;13.38;8.48;;;;;;;11.27;66.74;99944.88;1710623;83;21477;-60
2021/09/16 01:20:46;;;;;;;14.17;9.17;;;;;;;11.25;66.64;99948.04;1714394;82;21403;-60
2021/09/16 01:23:13;;;;;;;10.05;7.58;;;;;;;11.22;66.61;99945.52;1717712;82;21498;-60
2021/09/16 01:25:40;;;;;;;10.35;8.15;;;;;;;11.17;66.67;99948.35;1683925;82;21509;-60
2021/09/16 01:28:08;;;;;;;13.13;8.23;;;;;;;11.12;66.64;99950.30;1711962;82;21613;-59
2021/09/16 01:30:37;;;;;;;14.55;8.75;;;;;;;11.07;66.43;99952.25;1712254;83;21443;-59
2021/09/16 01:33:03;;;;;;;16.37;8.33;;;;;;;10.99;66.45;99948.61;1712379;82;21560;-60
2021/09/16 01:35:30;;;;;;;13.43;8.23;;;;;;;10.97;67.00;99947.83;1678053;83;21430;-59
2021/09/16 01:37:57;;;;;;;13.40;8.50;;;;;;;11.06;67.17;99946.61;1694843;82;21547;-59
2021/09/16 01:40:24;;;;;;;10.05;7.28;;;;;;;11.06;66.90;99945.30;1678041;83;23202;-60
2021/09/16 01:42:51;;;;;;;14.67;9.00;;;;;;;11.01;66.92;99945.46;1696907;82;21551;-59
2021/09/16 01:45:23;;;;;;;13.20;8.55;;;;;;;10.96;66.82;99943.93;1677948;85;21490;-60
2021/09/16 01:47:50;;;;;;;16.85;8.60;;;;;;;10.90;66.68;99937.14;1694901;84;21503;-59
2021/09/16 01:50:21;;;;;;;14.80;9.33;;;;;;;10.86;66.67;99936.86;1677832;83;21982;-59
2021/09/16 01:52:48;;;;;;;12.13;9.35;;;;;;;10.79;66.75;99930.97;1697342;82;21693;-60
2021/09/16 01:55:16;;;;;;;9.93;7.62;;;;;;;10.70;67.09;99932.67;1704687;83;20937;-61
2021/09/16 01:57:43;;;;;;;12.20;8.08;;;;;;;10.71;67.60;99935.69;1696625;81;21488;-60
2021/09/16 02:00:11;;;;;;;14.07;8.25;;;;;;;10.81;67.79;99930.48;1706700;82;21044;-60
2021/09/16 02:02:41;;;;;;;9.43;7.55;;;;;;;10.81;67.62;99933.12;1677719;85;21541;-59
2021/09/16 02:05:09;;;;;;;11.48;8.03;;;;;;;10.76;67.40;99936.38;1724103;81;21758;-60
2021/09/16 02:07:36;;;;;;;13.32;9.00;;;;;;;10.70;67.23;99937.47;1706715;83;21463;-60
2021/09/16 02:10:05;;;;;;;13.25;8.55;;;;;;;10.64;67.27;99940.34;1724037;82;21476;-60
2021/09/16 02:12:31;;;;;;;13.00;9.30;;;;;;;10.59;67.20;99934.86;1704676;82;21574;-59
2021/09/16 02:14:59;;;;;;;11.95;7.90;;;;;;;10.53;67.18;99937.27;1724258;82;22079;-61
2021/09/16 02:17:26;;;;;;;13.68;8.70;;;;;;;10.52;67.68;99936.39;1710609;82;21503;-60
2021/09/16 02:19:53;;;;;;;14.00;7.58;;;;;;;10.66;67.74;99933.69;1724230;82;21420;-59
2021/09/16 02:22:20;;;;;;;10.40;8.63;;;;;;;10.67;67.58;99938.05;1715649;82;21582;-60
2021/09/16 02:24:47;;;;;;;15.15;8.68;;;;;;;10.62;67.48;99938.67;1737248;82;21432;-60
2021/09/16 02:27:13;;;;;;;17.98;9.35;;;;;;;10.57;67.39;99946.75;1717814;82;21451;-59
2021/09/16 02:29:40;;;;;;;12.47;9.30;;;;;;;10.51;67.36;99949.15;1707320;83;21767;-59
2021/09/16 02:32:08;;;;;;;14.90;9.03;;;;;;;10.44;67.46;99941.09;1707861;82;21017;-59
2021/09/16 02:34:35;;;;;;;15.15;7.50;;;;;;;10.39;67.54;99936.91;1708168;82;21555;-60
2021/09/16 02:37:03;;;;;;;11.17;8.20;;;;;;;10.40;68.18;99937.33;1687960;84;21568;-60
2021/09/16 02:39:31;;;;;;;11.20;8.05;;;;;;;10.50;68.09;99942.63;1707300;83;22483;-59
2021/09/16 02:41:58;;;;;;;14.10;8.90;;;;;;;10.49;68.03;99940.47;1712587;81;21775;-59
2021/09/16 02:44:24;;;;;;;11.97;8.95;;;;;;;10.46;68.06;99947.14;1696383;83;21418;-60
2021/09/16 02:46:51;;;;;;;15.88;8.70;;;;;;;10.42;68.03;99942.92;1707500;82;21514;-60
2021/09/16 02:49:18;;;;;;;11.63;8.78;;;;;;;10.39;68.12;99942.17;1687990;83;21449;-60
2021/09/16 02:51:44;;;;;;;12.50;8.30;;;;;;;10.35;68.34;99945.37;1707417;83;20942;-60
2021/09/16 02:54:11;;;;;;;11.50;8.43;;;;;;;10.35;68.89;99944.52;1689640;83;21761;-60
2021/09/16 02:56:37;;;;;;;11.10;7.90;;;;;;;10.46;68.86;99957.66;1707452;80;21522;-61
2021/09/16 02:59:05;;;;;;;12.10;8.63;;;;;;;10.47;68.72;99946.67;1707414;82;21500;-59
2021/09/16 03:01:31;;;;;;;11.80;9.03;;;;;;;10.44;68.64;99947.66;1707954;82;21538;-60
2021/09/16 03:03:58;;;;;;;13.38;8.75;;;;;;;10.40;68.63;99947.37;1709363;82;21605;-60
2021/09/16 03:06:25;;;;;;;13.98;9.30;;;;;;;10.36;68.73;99950.16;1687717;83;22011;-60
2021/09/16 03:08:53;;;;;;;12.43;7.92;;;;;;;10.31;68.86;99945.09;1716840;82;21602;-60
2021/09/16 03:11:20;;;;;;;12.70;8.05;;;;;;;10.33;69.34;99947.20;1736267;82;21482;-62
2021/09/16 03:13:49;;;;;;;11.30;8.90;;;;;;;10.46;69.32;99943.66;1736943;82;21618;-60
2021/09/16 03:16:17;;;;;;;14.35;8.63;;;;;;;10.47;69.07;99944.92;1714754;82;21437;-59
2021/09/16 03:18:43;;;;;;;14.28;8.88;;;;;;;10.43;69.12;99934.09;1697252;83;21792;-62
2021/09/16 03:21:10;;;;;;;15.03;9.73;;;;;;;10.38;68.93;99932.13;1695157;84;21000;-59
2021/09/16 03:23:37;;;;;;;12.23;8.85;;;;;;;10.35;68.91;99932.23;1695141;84;21582;-59
2021/09/16 03:26:04;;;;;;;15.53;9.10;;;;;;;10.30;68.90;99931.50;1708954;82;21579;-60
2021/09/16 03:28:30;;;;;;;11.25;8.83;;;;;;;10.29;69.19;99934.59;1724101;82;21530;-60
2021/09/16 03:30:57;;;;;;;12.05;8.93;;;;;;;10.39;69.06;99933.82;1724079;82;21822;-59
2021/09/16 03:33:23;;;;;;;14.55;9.38;;;;;;;10.39;68.89;99919.36;1723994;82;21408;-61
2021/09/16 03:35:50;;;;;;;16.10;9.63;;;;;;;10.34;68.70;99921.33;1719366;81;21662;-61
2021/09/16 03:38:17;;;;;;;13.58;9.43;;;;;;;10.30;69.20;99935.44;1689707;83;21490;-59
2021/09/16 03:40:44;;;;;;;13.10;9.35;;;;;;;10.28;69.14;99929.39;1724077;82;20967;-60
2021/09/16 03:43:11;;;;;;;13.83;8.05;;;;;;;10.23;69.10;99929.57;1706528;83;22106;-60
2021/09/16 03:45:39;;;;;;;12.70;7.80;;;;;;;10.27;69.53;99932.95;1677927;83;21088;-60
2021/09/16 03:48:05;;;;;;;12.20;9.23;;;;;;;10.40;69.43;99929.44;1721943;82;21447;-60
2021/09/16 03:50:32;;;;;;;11.50;7.87;;;;;;;10.43;69.29;99930.16;1700562;82;21545;-60
2021/09/16 03:53:01;;;;;;;13.22;9.43;;;;;;;10.40;69.35;99923.72;1724007;82;21467;-60
2021/09/16 03:55:28;;;;;;;13.38;9.18;;;;;;;10.39;69.32;99919.36;1676545;83;21763;-60
2021/09/16 03:57:56;;;;;;;13.88;9.15;;;;;;;10.40;69.30;99913.67;1697212;83;21427;-60
2021/09/16 04:00:23;;;;;;;16.80;8.88;;;;;;;10.41;69.37;99920.62;1678868;83;21005;-60
2021/09/16 04:02:50;;;;;;;13.65;7.65;;;;;;;10.48;69.72;99920.80;1694929;84;21500;-60
2021/09/16 04:05:16;;;;;;;12.40;8.23;;;;;;;10.64;69.82;99923.69;1678021;85;21447;-60
2021/09/16 04:07:43;;;;;;;14.00;7.65;;;;;;;10.68;69.74;99922.21;1696824;82;21760;-61
2021/09/16 04:10:10;;;;;;;13.03;8.20;;;;;;;10.70;69.73;99927.41;1676869;83;21710;-61
2021/09/16 04:12:38;;;;;;;10.70;7.92;;;;;;;10.70;69.88;99931.36;1694158;84;21427;-60
2021/09/16 04:15:07;;;;;;;10.65;8.25;;;;;;;10.70;69.94;99936.16;1678296;83;21478;-59
2021/09/16 04:17:34;;;;;;;14.05;7.83;;;;;;;10.69;69.69;99940.16;1697259;83;21603;-61
2021/09/16 04:20:00;;;;;;;14.45;9.08;;;;;;;10.68;70.37;99949.83;1736136;82;22165;-60
2021/09/16 04:22:28;;;;;;;12.93;8.55;;;;;;;10.76;70.39;99971.03;1736750;82;21407;-60
2021/09/16 04:24:55;;;;;;;11.68;8.55;;;;;;;10.65;69.13;99971.43;1736913;82;21444;-60
2021/09/16 04:27:21;;;;;;;15.85;9.90;;;;;;;10.48;69.29;99967.66;1736814;81;21428;-59
2021/09/16 04:29:48;;;;;;;14.68;9.70;;;;;;;10.42;69.36;99965.27;1734814;82;21444;-60
2021/09/16 04:32:15;;;;;;;17.98;10.43;;;;;;;10.40;69.54;99970.19;1733468;80;21829;-61
2021/09/16 04:34:41;;;;;;;14.58;9.00;;;;;;;10.36;70.00;99968.13;1707174;80;20986;-61
2021/09/16 04:37:08;;;;;;;12.13;8.88;;;;;;;10.46;70.62;99981.31;1709802;82;21396;-62
2021/09/16 04:39:35;;;;;;;14.47;9.30;;;;;;;10.67;70.96;99986.22;1709319;82;21471;-59
2021/09/16 04:42:03;;;;;;;14.35;8.83;;;;;;;10.82;70.98;99990.05;1687746;84;21489;-61
2021/09/16 04:44:30;;;;;;;13.25;9.95;;;;;;;10.93;71.00;99992.74;1717133;82;21784;-61
2021/09/16 04:46:56;;;;;;;17.82;10.50;;;;;;;11.03;71.15;99994.09;1735782;82;21455;-60
2021/09/16 04:49:23;;;;;;;16.23;11.63;;;;;;;11.16;71.02;99988.73;1734294;82;21460;-60
2021/09/16 04:51:50;;;;;;;23.55;12.37;;;;;;;11.29;70.97;99995.69;1711803;83;21435;-62
2021/09/16 04:54:16;;;;;;;20.80;11.75;;;;;;;11.49;71.19;99998.84;1736941;80;21511;-61
2021/09/16 04:56:43;;;;;;;18.02;11.78;;;;;;;11.76;70.63;99996.83;1736807;82;21795;-60
2021/09/16 04:59:10;;;;;;;30.97;13.53;;;;;;;11.93;70.18;99997.46;1735848;82;21534;-59
2021/09/16 05:01:39;;;;;;;20.55;13.95;;;;;;;12.03;70.11;99992.17;1701483;83;21650;-62
2021/09/16 05:04:05;;;;;;;22.73;14.23;;;;;;;12.14;69.65;99995.67;1687696;83;21422;-61
2021/09/16 05:06:32;;;;;;;21.97;14.20;;;;;;;12.24;69.45;99987.77;1687984;83;21557;-62
2021/09/16 05:08:59;;;;;;;20.68;13.40;;;;;;;12.35;69.31;99984.64;1727725;82;21778;-61
2021/09/16 05:11:26;;;;;;;21.65;11.93;;;;;;;12.52;69.43;99986.98;1707411;82;21396;-60
2021/09/16 05:13:53;;;;;;;;;;;;;;;12.79;69.13;99983.53;1710803;82;20959;-61
2021/09/16 05:16:20;;;;;;;18.92;10.55;;;;;;;12.97;69.16;99980.51;1707177;83;20414;-60
2021/09/16 05:18:48;;;;;;;17.42;11.10;;;;;;;13.06;68.83;99981.39;1700243;82;21503;-60
2021/09/16 05:21:15;;;;;;;14.95;10.88;;;;;;;13.18;68.78;99972.87;1711712;82;21991;-62
2021/09/16 05:23:41;;;;;;;13.53;10.28;;;;;;;13.31;68.70;99977.59;1707518;82;21539;-60
2021/09/16 05:26:08;;;;;;;16.90;10.70;;;;;;;13.39;68.55;99977.63;1718372;82;21448;-60
2021/09/16 05:28:36;;;;;;;;;;;;;;;13.48;68.16;99975.45;1716986;82;21436;-60
2021/09/16 05:31:04;;;;;;;15.85;8.43;;;;;;;13.62;68.32;99979.12;1714116;82;20182;-61
2021/09/16 05:33:32;;;;;;;14.53;8.50;;;;;;;13.82;67.90;99978.13;1699804;82;21499;-62
2021/09/16 05:36:02;;;;;;;13.05;8.73;;;;;;;13.93;67.79;99979.34;1694819;84;21550;-64
2021/09/16 05:38:29;;;;;;;14.55;8.83;;;;;;;14.00;67.62;99981.59;1716609;82;21463;-62
2021/09/16 05:40:55;;;;;;;16.07;8.55;;;;;;;14.08;67.62;99985.64;1713753;82;21472;-63
2021/09/16 05:43:22;;;;;;;11.63;8.30;;;;;;;14.17;67.18;99986.48;1686657;83;21587;-62
2021/09/16 05:45:50;;;;;;;12.93;7.53;;;;;;;14.23;66.98;99978.70;1698027;82;21833;-60
2021/09/16 05:48:16;;;;;;;;;;;;;;;14.27;66.35;99979.77;1689478;83;21658;-62
2021/09/16 05:50:44;;;;;;;12.20;6.92;;;;;;;14.33;66.50;99979.43;1661552;83;20453;-63
2021/09/16 05:53:11;;;;;;;;;;;;;;;14.38;65.95;99981.38;1702637;82;21559;-63
2021/09/16 05:55:40;;;;;;;17.10;7.28;;;;;;;14.43;65.64;99984.23;1701701;82;20426;-66
2021/09/16 05:58:07;;;;;;;13.93;7.05;;;;;;;14.46;65.19;99974.82;1693005;83;21782;-64
2021/09/16 06:00:35;;;;;;;13.32;6.42;;;;;;;14.58;65.44;99978.17;1704354;81;21030;-64
2021/09/16 06:05:04;;;;;;;15.60;7.42;;;;;;;14.98;64.23;99978.63;1764556;79;22785;-65
2021/09/16 06:07:31;;;;;;;14.30;7.58;;;;;;;15.03;64.51;99980.56;1739901;80;21525;-62
2021/09/16 06:09:59;;;;;;;17.62;7.40;;;;;;;15.14;64.29;99974.64;1739048;80;21652;-63
2021/09/16 06:12:29;;;;;;;24.05;7.50;;;;;;;15.23;63.66;99981.22;1740156;80;21633;-62
2021/09/16 06:14:56;;;;;;;19.73;7.15;;;;;;;15.30;63.04;99984.75;1739612;80;21486;-64
2021/09/16 06:17:22;;;;;;;17.73;7.33;;;;;;;15.37;62.29;99985.27;1739154;80;21116;-62
2021/09/16 06:19:51;;;;;;;25.08;8.35;;;;;;;15.42;61.58;99982.34;1736622;80;21595;-64
2021/09/16 06:22:18;;;;;;;20.15;8.35;;;;;;;15.48;61.35;99981.53;1738151;80;21788;-64
2021/09/16 06:24:45;;;;;;;22.02;7.30;;;;;;;15.54;61.34;99987.80;1740416;80;21510;-62
2021/09/16 06:27:11;;;;;;;22.58;7.03;;;;;;;15.62;61.09;99977.23;1738062;80;21458;-64
2021/09/16 06:29:38;;;;;;;20.35;7.05;;;;;;;15.66;60.17;99986.70;1738898;80;21553;-63
2021/09/16 06:32:05;;;;;;;15.60;5.58;;;;;;;15.72;59.61;99984.53;1738637;80;21610;-64
2021/09/16 06:34:32;;;;;;;;;;;;;;;15.78;59.09;99979.38;1742963;80;21958;-61
2021/09/16 06:36:58;;;;;;;5.60;3.40;;;;;;;15.84;56.28;99975.50;1745279;80;20431;-68
2021/09/16 06:39:25;;;;;;;7.80;3.95;;;;;;;15.87;56.59;99977.50;1728247;81;21523;-64
2021/09/16 06:41:53;;;;;;;13.03;4.75;;;;;;;15.92;55.75;99977.25;1719455;81;21550;-65
2021/09/16 06:44:20;;;;;;;14.40;4.45;;;;;;;15.97;55.93;99980.45;1746136;81;21448;-64
2021/09/16 06:46:48;;;;;;;5.35;3.33;;;;;;;16.03;56.22;99981.88;1745995;81;21491;-65
2021/09/16 06:49:16;;;;;;;8.98;3.80;;;;;;;16.09;54.58;99977.56;1723830;81;21015;-64
2021/09/16 06:51:44;;;;;;;5.12;2.60;;;;;;;16.16;54.39;99982.84;1721701;82;21579;-62
2021/09/16 06:54:12;;;;;;;5.75;2.20;;;;;;;16.21;53.19;99982.10;1721210;81;21438;-62
2021/09/16 06:56:39;;;;;;;4.43;2.27;;;;;;;16.28;51.93;99975.48;1726995;80;21530;-62
2021/09/16 06:59:05;;;;;;;7.40;2.62;;;;;;;16.34;51.57;99977.75;1746052;81;21755;-64
2021/09/16 07:01:35;;;;;;;6.30;3.37;;;;;;;16.41;51.59;99976.06;1741710;81;21427;-64
2021/09/16 07:04:02;;;;;;;4.50;3.05;;;;;;;16.48;51.66;99980.91;1740345;81;21435;-64
2021/09/16 07:06:29;;;;;;;5.50;3.30;;;;;;;16.58;51.65;99978.52;1733101;82;20971;-64
2021/09/16 07:08:56;;;;;;;11.10;3.70;;;;;;;16.65;51.81;99977.64;1732977;82;21569;-63
2021/09/16 07:11:23;;;;;;;8.53;3.50;;;;;;;16.74;52.10;99985.03;1733217;82;22144;-64
2021/09/16 07:13:51;;;;;;;5.28;2.98;;;;;;;16.81;51.96;99985.52;1732200;82;21468;-64
2021/09/16 07:16:19;;;;;;;5.60;3.30;;;;;;;16.87;51.58;99985.99;1722829;82;21650;-65
2021/09/16 07:18:47;;;;;;;6.00;3.33;;;;;;;16.94;51.31;99993.11;1731860;81;21498;-66
2021/09/16 07:21:14;;;;;;;8.05;3.02;;;;;;;17.00;50.54;99990.53;1732507;81;21037;-71
2021/09/16 07:23:42;;;;;;;6.08;3.08;;;;;;;17.08;50.67;99992.22;1732577;82;22021;-70
2021/09/16 07:26:11;;;;;;;4.58;2.50;;;;;;;17.17;49.82;99991.63;1731607;82;21461;-67
2021/09/16 07:28:38;;;;;;;4.35;2.20;;;;;;;17.27;48.67;99986.56;1732506;82;21424;-65
2021/09/16 07:31:06;;;;;;;4.75;2.37;;;;;;;17.36;48.38;99987.78;1730352;82;21474;-68
2021/09/16 07:33:33;;;;;;;7.40;2.87;;;;;;;17.42;47.28;99983.38;1732511;82;21445;-65
2021/09/16 07:36:00;;;;;;;4.45;2.92;;;;;;;17.53;47.44;99982.67;1732464;82;21581;-66
2021/09/16 07:38:26;;;;;;;3.80;2.80;;;;;;;17.61;47.57;99984.34;1731344;82;21665;-65
2021/09/16 07:40:53;;;;;;;5.80;3.27;;;;;;;17.66;47.12;99979.09;1732637;82;21473;-65
2021/09/16 07:43:20;;;;;;;5.87;3.42;;;;;;;17.72;47.53;99981.81;1732395;82;20984;-64
2021/09/16 07:45:46;;;;;;;3.70;3.12;;;;;;;17.79;47.68;99979.61;1732558;82;21514;-64
2021/09/16 07:48:13;;;;;;;4.15;2.67;;;;;;;17.85;46.70;99977.40;1724047;82;22024;-69
2021/09/16 07:50:40;;;;;;;10.28;3.10;;;;;;;17.92;46.59;99978.34;1723426;81;21076;-66
2021/09/16 07:53:09;;;;;;;4.17;2.87;;;;;;;17.95;46.68;99982.09;1727031;81;21633;-67
2021/09/16 07:55:37;;;;;;;4.72;2.95;;;;;;;18.02;46.64;99978.06;1727517;81;21555;-67
2021/09/16 07:58:05;;;;;;;7.17;3.33;;;;;;;18.09;46.97;99977.54;1665007;84;21587;-66
2021/09/16 08:00:33;;;;;;;6.08;3.47;;;;;;;18.17;46.24;99973.02;1723300;81;21780;-70
2021/09/16 08:02:59;;;;;;;;;;;;;;;18.25;45.95;99973.36;1729452;81;21530;-65
2021/09/16 08:05:26;;;;;;;8.45;2.77;;;;;;;18.30;45.42;99971.69;1725244;81;20417;-66
2021/09/16 08:07:53;;;;;;;5.63;3.60;;;;;;;18.37;45.52;99969.47;1730508;81;21530;-66
2021/09/16 08:10:20;;;;;;;5.10;2.90;;;;;;;18.42;44.95;99972.17;1730072;81;21628;-65
2021/09/16 08:12:47;;;;;;;4.90;3.43;;;;;;;18.50;45.07;99970.30;1732213;82;21847;-65
2021/09/16 08:15:15;;;;;;;8.85;2.37;;;;;;;18.59;44.77;99981.64;1732398;82;21007;-65
2021/09/16 08:17:42;;;;;;;4.03;2.20;;;;;;;18.66;44.34;99974.05;1732793;82;21016;-63
2021/09/16 08:20:11;;;;;;;5.05;2.67;;;;;;;18.72;43.98;99971.42;1716283;82;21446;-63
2021/09/16 08:22:38;;;;;;;4.45;2.20;;;;;;;18.74;43.34;99970.83;1737274;82;20982;-63
2021/09/16 08:25:07;;;;;;;2.92;2.33;;;;;;;18.85;42.85;99971.82;1737753;81;22004;-64
2021/09/16 08:27:35;;;;;;;5.50;2.05;;;;;;;18.88;42.45;99969.41;1711988;82;21579;-66
2021/09/16 08:30:04;;;;;;;2.60;2.00;;;;;;;18.89;41.46;99973.75;1720704;82;21536;-65
2021/09/16 08:32:31;;;;;;;3.47;2.42;;;;;;;18.92;42.07;99977.54;1731331;82;21552;-65
2021/09/16 08:34:58;;;;;;;4.20;2.02;;;;;;;19.01;42.54;99976.88;1732387;82;21556;-65
2021/09/16 08:37:25;;;;;;;3.02;2.58;;;;;;;19.14;41.94;99974.66;1731992;82;21805;-65
2021/09/16 08:39:52;;;;;;;3.17;2.58;;;;;;;19.20;41.85;99975.05;1737798;81;21420;-65
2021/09/16 08:42:19;;;;;;;3.08;2.67;;;;;;;19.25;42.09;99969.39;1737853;82;20980;-65
2021/09/16 08:44:45;;;;;;;3.05;2.40;;;;;;;19.29;42.24;99969.53;1662265;81;20998;-65
2021/09/16 08:47:14;;;;;;;6.40;2.75;;;;;;;19.35;41.85;99967.73;1738402;82;20936;-67
2021/09/16 08:49:40;;;;;;;4.20;2.20;;;;;;;19.42;41.67;99965.44;1739706;82;21891;-66
2021/09/16 08:52:08;;;;;;;3.33;2.00;;;;;;;19.48;41.50;99972.13;1737663;82;21475;-65
2021/09/16 08:54:35;;;;;;;4.80;2.20;;;;;;;19.54;41.20;99969.03;1731458;81;21589;-66
2021/09/16 08:57:03;;;;;;;;;;;;;;;19.62;40.98;99967.96;1734372;82;21104;-67
2021/09/16 08:59:30;;;;;;;2.60;2.33;;;;;;;19.63;41.13;99954.52;1731446;82;20463;-63
2021/09/16 09:01:58;;;;;;;10.72;2.90;;;;;;;19.81;41.50;99967.45;1732377;82;21790;-63
2021/09/16 09:04:25;;;;;;;3.22;2.65;;;;;;;19.94;41.73;99971.36;1706742;81;21045;-65
2021/09/16 09:07:02;;;;;;;5.00;2.35;;;;;;;20.08;41.47;99967.62;1739748;81;20930;-65
2021/09/16 09:09:28;;;;;;;4.03;2.30;;;;;;;20.18;41.13;99961.95;1743113;81;21486;-63
2021/09/16 09:12:02;;;;;;;3.22;2.10;;;;;;;20.27;40.67;99958.56;1715963;83;21093;-64
2021/09/16 09:14:44;;;;;;;5.08;2.17;;;;;;;20.36;40.43;99963.19;1738005;80;21533;-66
2021/09/16 09:17:26;;;;;;;3.22;2.10;;;;;;;20.43;39.33;99962.20;1746087;81;21374;-67
2021/09/16 09:19:55;;;;;;;4.97;2.08;;;;;;;20.48;38.96;99963.19;1746156;81;21016;-66
2021/09/16 09:22:34;;;;;;;4.72;2.05;;;;;;;20.49;38.74;99960.38;1746427;80;21434;-66
2021/09/16 09:25:12;;;;;;;3.77;2.27;;;;;;;20.49;38.33;99956.86;1746006;80;21459;-66
2021/09/16 09:27:48;;;;;;;2.50;1.80;;;;;;;20.51;38.58;99961.13;1746246;80;21779;-66
2021/09/16 09:30:27;;;;;;;8.08;2.55;;;;;;;20.56;38.97;99956.25;1746093;81;21529;-66
2021/09/16 09:33:09;;;;;;;2.83;1.75;;;;;;;20.66;39.01;99952.38;1746070;81;21588;-66
2021/09/16 09:35:40;;;;;;;5.87;1.77;;;;;;;20.74;38.83;99944.62;1731351;81;21608;-67
2021/09/16 09:38:21;;;;;;;2.35;1.62;;;;;;;20.89;38.84;99950.55;1709593;83;21586;-66
2021/09/16 09:40:56;;;;;;;1.98;1.80;;;;;;;21.24;38.91;99944.62;1693536;84;21853;-66
2021/09/16 09:43:30;;;;;;;4.08;1.87;;;;;;;21.24;38.91;99944.62;1675899;84;21463;-66
2021/09/16 09:46:18;;;;;;;3.17;1.75;;;;;;;21.35;38.19;99929.88;1686884;84;21007;-65
2021/09/16 09:49:01;;;;;;;3.67;1.65;;;;;;;21.48;38.09;99939.09;1687751;84;21008;-66
2021/09/16 09:51:42;;;;;;;3.75;1.80;;;;;;;21.55;37.74;99938.45;1689013;84;21485;-65
2021/09/16 09:54:30;;;;;;;3.22;2.00;;;;;;;21.63;36.92;99935.62;1684156;84;21807;-61
2021/09/16 09:57:06;;;;;;;4.47;1.98;;;;;;;21.63;36.70;99928.94;1681248;83;21487;-62
2021/09/16 10:00:07;;;;;;;4.30;1.40;;;;;;;21.66;36.48;99929.53;1682305;83;21506;-62
2021/09/16 10:02:52;;;;;;;2.80;1.92;;;;;;;21.66;36.48;99929.53;1679638;84;21106;-61
2021/09/16 10:05:30;;;;;;;1.85;1.72;;;;;;;21.73;37.36;99932.02;1678635;84;21006;-62
2021/09/16 10:08:12;;;;;;;4.00;2.77;;;;;;;21.83;37.20;99928.56;1661641;84;21786;-61
2021/09/16 10:10:51;;;;;;;3.90;2.17;;;;;;;21.90;36.44;99925.72;1652504;84;21614;-61
2021/09/16 10:13:20;;;;;;;2.42;2.22;;;;;;;21.87;36.37;99927.31;1649171;86;21456;-62
2021/09/16 10:15:52;;;;;;;5.58;3.02;;;;;;;21.87;36.37;99927.31;1648746;85;21017;-60
2021/09/16 10:18:20;;;;;;;3.98;2.50;;;;;;;21.90;36.62;99916.36;1674665;85;20947;-60
2021/09/16 10:20:48;;;;;;;3.27;2.15;;;;;;;21.90;36.62;99916.36;1695425;83;25628;-62
2021/09/16 10:23:16;;;;;;;3.02;2.25;;;;;;;21.91;36.68;99914.89;1731446;82;21420;-61
2021/09/16 10:25:47;;;;;;;6.05;2.40;;;;;;;21.96;36.86;99911.34;1717214;82;21501;-63
2021/09/16 10:28:14;;;;;;;4.12;2.37;;;;;;;22.03;36.38;99915.66;1709865;82;22192;-64
2021/09/16 10:30:47;;;;;;;3.83;2.75;;;;;;;22.05;36.46;99909.67;1733292;82;21545;-64
2021/09/16 10:33:27;;;;;;;3.60;2.75;;;;;;;22.10;36.38;99912.81;1732777;82;22060;-62
2021/09/16 10:36:05;;;;;;;5.15;2.60;;;;;;;22.10;36.38;99912.81;1732509;82;20999;-63
2021/09/16 10:38:45;;;;;;;6.45;2.58;;;;;;;22.10;36.31;99906.61;1702968;83;21479;-63
2021/09/16 10:41:25;;;;;;;2.52;2.27;;;;;;;22.10;36.31;99906.61;1730054;82;21566;-63
2021/09/16 10:44:08;;;;;;;4.03;2.27;;;;;;;22.11;36.39;99910.50;1702876;83;21455;-62
2021/09/16 10:46:42;;;;;;;3.30;2.05;;;;;;;22.11;36.39;99910.50;1702938;83;21821;-63
2021/09/16 10:49:26;;;;;;;5.00;2.27;;;;;;;22.15;36.22;99899.88;1702993;83;21507;-67
2021/09/16 10:52:00;;;;;;;5.12;2.35;;;;;;;22.15;36.22;99899.88;1735960;80;21491;-63
2021/09/16 10:54:51;;;;;;;8.50;2.30;;;;;;;22.14;36.41;99910.22;1737596;80;21538;-60
2021/09/16 10:57:34;;;;;;;2.80;2.33;;;;;;;22.17;36.46;99910.45;1736483;82;21479;-61
2021/09/16 11:00:06;;;;;;;7.80;2.50;;;;;;;22.24;36.48;99911.59;1732140;80;21885;-62
2021/09/16 11:02:48;;;;;;;5.37;2.52;;;;;;;22.18;35.92;99909.95;1734561;81;21428;-62
2021/09/16 11:05:22;;;;;;;5.78;2.72;;;;;;;22.10;36.44;99910.13;1721455;81;20973;-60
2021/09/16 11:07:55;;;;;;;4.85;2.30;;;;;;;22.06;36.44;99907.37;1708555;83;20988;-60
2021/09/16 11:10:29;;;;;;;4.67;2.50;;;;;;;22.03;36.53;99900.09;1704129;82;21038;-60
2021/09/16 11:13:05;;;;;;;5.17;1.85;;;;;;;22.04;36.82;99900.43;1721958;82;21791;-60
2021/09/16 11:15:38;;;;;;;5.00;2.58;;;;;;;22.08;36.91;99901.39;1638266;86;21492;-60
2021/09/16 11:18:13;;;;;;;8.95;2.92;;;;;;;22.15;37.02;99894.98;1721836;82;21611;-59
2021/09/16 11:20:42;;;;;;;4.22;2.65;;;;;;;22.21;36.56;99894.95;1654776;85;21460;-60
2021/09/16 11:23:09;;;;;;;5.30;2.37;;;;;;;22.27;36.71;99886.42;1732495;82;21507;-59
2021/09/16 11:25:42;;;;;;;3.13;2.43;;;;;;;22.35;36.69;99884.75;1732709;82;21741;-60
2021/09/16 11:28:09;;;;;;;8.85;2.70;;;;;;;22.48;36.66;99882.34;1726357;82;21540;-60
2021/09/16 11:30:36;;;;;;;4.03;2.27;;;;;;;22.56;36.83;99881.15;1720660;81;21614;-62
2021/09/16 11:33:04;;;;;;;;;;;;;;;22.67;36.37;99877.02;1668363;84;21558;-61
2021/09/16 11:35:31;;;;;;;8.90;2.55;;;;;;;22.75;36.12;99879.00;1665036;84;20242;-61
2021/09/16 11:37:58;;;;;;;3.30;2.80;;;;;;;22.80;36.68;99878.11;1730976;82;21503;-61
2021/09/16 11:40:29;;;;;;;3.25;2.62;;;;;;;22.91;36.62;99879.32;1730669;82;21605;-61
2021/09/16 11:43:00;;;;;;;6.53;2.67;;;;;;;23.03;36.10;99875.17;1698524;82;21563;-62